sensor_id;sensor_type;location;lat;lon;timestamp;P1;durP1;ratioP1;P2;durP2;ratioP2
2854;SDS011;1435;49.472;10.940;2023-03-03T00:04:19;33.13;;;15.50;;
2854;SDS011;1435;49.472;10.940;2023-03-03T00:09:21;23.03;;;14.00;;
2854;SDS011;1435;49.472;10.940;2023-03-03T00:14:25;18.73;;;13.43;;
2854;SDS011;1435;49.472;10.940;2023-03-03T00:19:29;20.50;;;13.50;;
2854;SDS011;1435;49.472;10.940;2023-03-03T00:24:40;20.00;;;14.00;;
2854;SDS011;1435;49.472;10.940;2023-03-03T00:29:45;18.80;;;14.23;;
2854;SDS011;1435;49.472;10.940;2023-03-03T00:34:50;19.53;;;14.47;;
2854;SDS011;1435;49.472;10.940;2023-03-03T00:39:53;20.30;;;13.10;;
2854;SDS011;1435;49.472;10.940;2023-03-03T00:44:58;20.10;;;14.40;;
2854;SDS011;1435;49.472;10.940;2023-03-03T00:55:29;25.53;;;16.87;;
2854;SDS011;1435;49.472;10.940;2023-03-03T01:00:32;18.70;;;12.87;;
2854;SDS011;1435;49.472;10.940;2023-03-03T01:05:34;19.07;;;12.83;;
2854;SDS011;1435;49.472;10.940;2023-03-03T01:10:37;18.50;;;12.33;;
2854;SDS011;1435;49.472;10.940;2023-03-03T01:15:43;16.83;;;14.10;;
2854;SDS011;1435;49.472;10.940;2023-03-03T01:20:45;22.43;;;15.00;;
2854;SDS011;1435;49.472;10.940;2023-03-03T01:25:46;23.40;;;14.00;;
2854;SDS011;1435;49.472;10.940;2023-03-03T01:30:50;20.37;;;14.50;;
2854;SDS011;1435;49.472;10.940;2023-03-03T01:35:51;20.53;;;15.40;;
2854;SDS011;1435;49.472;10.940;2023-03-03T01:40:54;18.23;;;13.80;;
2854;SDS011;1435;49.472;10.940;2023-03-03T01:51:41;18.30;;;13.00;;
2854;SDS011;1435;49.472;10.940;2023-03-03T01:56:47;20.00;;;13.50;;
2854;SDS011;1435;49.472;10.940;2023-03-03T02:01:51;17.50;;;12.60;;
2854;SDS011;1435;49.472;10.940;2023-03-03T02:06:55;21.20;;;13.60;;
2854;SDS011;1435;49.472;10.940;2023-03-03T02:12:02;20.53;;;13.97;;
2854;SDS011;1435;49.472;10.940;2023-03-03T02:17:07;19.53;;;13.53;;
2854;SDS011;1435;49.472;10.940;2023-03-03T02:22:10;19.10;;;12.80;;
2854;SDS011;1435;49.472;10.940;2023-03-03T02:27:16;18.40;;;13.83;;
2854;SDS011;1435;49.472;10.940;2023-03-03T02:32:18;15.97;;;13.80;;
2854;SDS011;1435;49.472;10.940;2023-03-03T02:37:20;22.27;;;13.77;;
2854;SDS011;1435;49.472;10.940;2023-03-03T02:42:24;20.53;;;13.87;;
2854;SDS011;1435;49.472;10.940;2023-03-03T02:47:29;15.07;;;11.97;;
2854;SDS011;1435;49.472;10.940;2023-03-03T02:52:31;17.30;;;12.60;;
2854;SDS011;1435;49.472;10.940;2023-03-03T02:57:34;17.10;;;12.40;;
2854;SDS011;1435;49.472;10.940;2023-03-03T03:02:36;19.77;;;12.70;;
2854;SDS011;1435;49.472;10.940;2023-03-03T03:07:37;16.17;;;12.53;;
2854;SDS011;1435;49.472;10.940;2023-03-03T03:12:40;20.07;;;12.20;;
2854;SDS011;1435;49.472;10.940;2023-03-03T03:17:42;19.57;;;14.00;;
2854;SDS011;1435;49.472;10.940;2023-03-03T03:22:44;20.00;;;14.83;;
2854;SDS011;1435;49.472;10.940;2023-03-03T03:27:47;22.30;;;14.53;;
2854;SDS011;1435;49.472;10.940;2023-03-03T03:32:48;17.90;;;13.60;;
2854;SDS011;1435;49.472;10.940;2023-03-03T03:37:50;19.20;;;13.53;;
2854;SDS011;1435;49.472;10.940;2023-03-03T03:42:53;19.47;;;13.30;;
2854;SDS011;1435;49.472;10.940;2023-03-03T03:47:56;23.30;;;13.97;;
2854;SDS011;1435;49.472;10.940;2023-03-03T03:52:57;19.57;;;14.37;;
2854;SDS011;1435;49.472;10.940;2023-03-03T03:58:00;20.93;;;13.53;;
2854;SDS011;1435;49.472;10.940;2023-03-03T04:03:02;21.60;;;14.30;;
2854;SDS011;1435;49.472;10.940;2023-03-03T04:08:04;22.97;;;14.93;;
2854;SDS011;1435;49.472;10.940;2023-03-03T04:13:07;22.53;;;14.23;;
2854;SDS011;1435;49.472;10.940;2023-03-03T04:18:09;18.93;;;15.17;;
2854;SDS011;1435;49.472;10.940;2023-03-03T04:23:11;20.10;;;14.90;;
2854;SDS011;1435;49.472;10.940;2023-03-03T04:28:15;17.90;;;12.10;;
2854;SDS011;1435;49.472;10.940;2023-03-03T04:33:17;20.20;;;13.97;;
2854;SDS011;1435;49.472;10.940;2023-03-03T04:38:19;24.50;;;15.47;;
2854;SDS011;1435;49.472;10.940;2023-03-03T04:43:22;19.13;;;13.20;;
2854;SDS011;1435;49.472;10.940;2023-03-03T04:48:24;23.73;;;14.60;;
2854;SDS011;1435;49.472;10.940;2023-03-03T04:53:26;24.30;;;15.07;;
2854;SDS011;1435;49.472;10.940;2023-03-03T04:58:29;21.77;;;14.17;;
2854;SDS011;1435;49.472;10.940;2023-03-03T05:03:31;32.80;;;17.37;;
2854;SDS011;1435;49.472;10.940;2023-03-03T05:08:33;22.67;;;15.27;;
2854;SDS011;1435;49.472;10.940;2023-03-03T05:13:36;25.73;;;15.87;;
2854;SDS011;1435;49.472;10.940;2023-03-03T05:18:38;22.20;;;14.93;;
2854;SDS011;1435;49.472;10.940;2023-03-03T05:23:40;28.17;;;16.77;;
2854;SDS011;1435;49.472;10.940;2023-03-03T05:28:43;23.23;;;15.00;;
2854;SDS011;1435;49.472;10.940;2023-03-03T05:33:45;21.10;;;15.27;;
2854;SDS011;1435;49.472;10.940;2023-03-03T05:38:47;25.03;;;16.00;;
2854;SDS011;1435;49.472;10.940;2023-03-03T05:43:50;22.50;;;14.67;;
2854;SDS011;1435;49.472;10.940;2023-03-03T05:48:51;26.43;;;17.60;;
2854;SDS011;1435;49.472;10.940;2023-03-03T05:53:53;26.67;;;16.57;;
2854;SDS011;1435;49.472;10.940;2023-03-03T05:58:56;32.63;;;18.30;;
2854;SDS011;1435;49.472;10.940;2023-03-03T06:03:58;32.93;;;16.97;;
2854;SDS011;1435;49.472;10.940;2023-03-03T06:08:59;32.40;;;19.67;;
2854;SDS011;1435;49.472;10.940;2023-03-03T06:14:02;26.47;;;19.50;;
2854;SDS011;1435;49.472;10.940;2023-03-03T06:19:04;30.33;;;17.97;;
2854;SDS011;1435;49.472;10.940;2023-03-03T06:24:06;35.23;;;19.87;;
2854;SDS011;1435;49.472;10.940;2023-03-03T06:29:09;29.47;;;19.60;;
2854;SDS011;1435;49.472;10.940;2023-03-03T06:34:11;35.40;;;19.57;;
2854;SDS011;1435;49.472;10.940;2023-03-03T06:39:13;33.23;;;21.20;;
2854;SDS011;1435;49.472;10.940;2023-03-03T06:44:16;33.30;;;20.70;;
2854;SDS011;1435;49.472;10.940;2023-03-03T06:49:18;34.43;;;20.10;;
2854;SDS011;1435;49.472;10.940;2023-03-03T06:54:20;36.67;;;23.87;;
2854;SDS011;1435;49.472;10.940;2023-03-03T06:59:29;36.53;;;21.13;;
2854;SDS011;1435;49.472;10.940;2023-03-03T07:04:31;32.40;;;22.30;;
2854;SDS011;1435;49.472;10.940;2023-03-03T07:09:33;34.77;;;21.10;;
2854;SDS011;1435;49.472;10.940;2023-03-03T07:14:36;40.83;;;21.90;;
2854;SDS011;1435;49.472;10.940;2023-03-03T07:19:45;30.23;;;18.90;;
2854;SDS011;1435;49.472;10.940;2023-03-03T07:24:49;36.67;;;21.37;;
2854;SDS011;1435;49.472;10.940;2023-03-03T07:29:54;31.13;;;20.10;;
2854;SDS011;1435;49.472;10.940;2023-03-03T07:35:21;36.80;;;21.37;;
2854;SDS011;1435;49.472;10.940;2023-03-03T07:40:34;32.93;;;22.90;;
2854;SDS011;1435;49.472;10.940;2023-03-03T07:45:39;38.00;;;23.03;;
2854;SDS011;1435;49.472;10.940;2023-03-03T07:50:41;35.87;;;23.83;;
2854;SDS011;1435;49.472;10.940;2023-03-03T07:55:42;32.33;;;21.17;;
2854;SDS011;1435;49.472;10.940;2023-03-03T08:06:40;36.57;;;22.40;;
2854;SDS011;1435;49.472;10.940;2023-03-03T08:11:52;36.33;;;23.07;;
2854;SDS011;1435;49.472;10.940;2023-03-03T08:16:55;40.90;;;21.90;;
2854;SDS011;1435;49.472;10.940;2023-03-03T08:21:59;40.07;;;22.57;;
2854;SDS011;1435;49.472;10.940;2023-03-03T08:27:03;36.67;;;20.57;;
2854;SDS011;1435;49.472;10.940;2023-03-03T08:32:05;37.77;;;22.63;;
2854;SDS011;1435;49.472;10.940;2023-03-03T08:37:08;44.70;;;22.77;;
2854;SDS011;1435;49.472;10.940;2023-03-03T08:42:09;35.90;;;23.03;;
2854;SDS011;1435;49.472;10.940;2023-03-03T08:47:11;39.10;;;21.57;;
2854;SDS011;1435;49.472;10.940;2023-03-03T08:52:14;38.70;;;22.33;;
2854;SDS011;1435;49.472;10.940;2023-03-03T08:57:16;31.87;;;21.40;;
2854;SDS011;1435;49.472;10.940;2023-03-03T09:02:18;40.53;;;23.77;;
2854;SDS011;1435;49.472;10.940;2023-03-03T09:07:21;33.83;;;21.77;;
2854;SDS011;1435;49.472;10.940;2023-03-03T09:12:24;39.50;;;22.63;;
2854;SDS011;1435;49.472;10.940;2023-03-03T09:17:30;33.23;;;20.27;;
2854;SDS011;1435;49.472;10.940;2023-03-03T09:22:35;36.27;;;21.90;;
2854;SDS011;1435;49.472;10.940;2023-03-03T09:27:38;34.93;;;22.07;;
2854;SDS011;1435;49.472;10.940;2023-03-03T09:32:40;35.10;;;21.33;;
2854;SDS011;1435;49.472;10.940;2023-03-03T09:37:44;35.40;;;21.80;;
2854;SDS011;1435;49.472;10.940;2023-03-03T09:42:51;35.57;;;21.70;;
2854;SDS011;1435;49.472;10.940;2023-03-03T09:48:12;39.13;;;22.10;;
2854;SDS011;1435;49.472;10.940;2023-03-03T09:53:49;32.17;;;20.10;;
2854;SDS011;1435;49.472;10.940;2023-03-03T09:59:01;36.93;;;22.37;;
2854;SDS011;1435;49.472;10.940;2023-03-03T10:04:17;37.57;;;22.13;;
2854;SDS011;1435;49.472;10.940;2023-03-03T10:09:43;36.07;;;21.70;;
2854;SDS011;1435;49.472;10.940;2023-03-03T10:15:01;28.57;;;19.90;;
2854;SDS011;1435;49.472;10.940;2023-03-03T10:20:22;33.83;;;20.77;;
2854;SDS011;1435;49.472;10.940;2023-03-03T10:25:38;33.13;;;19.70;;
2854;SDS011;1435;49.472;10.940;2023-03-03T10:30:44;29.13;;;19.57;;
2854;SDS011;1435;49.472;10.940;2023-03-03T10:36:01;30.20;;;19.83;;
2854;SDS011;1435;49.472;10.940;2023-03-03T10:46:45;31.33;;;19.40;;
2854;SDS011;1435;49.472;10.940;2023-03-03T10:51:58;27.87;;;18.90;;
2854;SDS011;1435;49.472;10.940;2023-03-03T10:57:14;26.60;;;18.50;;
2854;SDS011;1435;49.472;10.940;2023-03-03T11:02:25;31.80;;;19.13;;
2854;SDS011;1435;49.472;10.940;2023-03-03T11:07:33;25.60;;;17.80;;
2854;SDS011;1435;49.472;10.940;2023-03-03T11:12:43;29.20;;;18.70;;
2854;SDS011;1435;49.472;10.940;2023-03-03T11:17:53;17.97;;;14.97;;
2854;SDS011;1435;49.472;10.940;2023-03-03T11:23:10;24.50;;;16.10;;
2854;SDS011;1435;49.472;10.940;2023-03-03T11:28:35;28.60;;;17.83;;
2854;SDS011;1435;49.472;10.940;2023-03-03T11:33:53;28.10;;;16.87;;
2854;SDS011;1435;49.472;10.940;2023-03-03T11:39:02;27.23;;;18.53;;
2854;SDS011;1435;49.472;10.940;2023-03-03T11:44:16;26.13;;;16.97;;
2854;SDS011;1435;49.472;10.940;2023-03-03T11:49:21;26.43;;;17.90;;
2854;SDS011;1435;49.472;10.940;2023-03-03T11:54:29;29.10;;;18.20;;
2854;SDS011;1435;49.472;10.940;2023-03-03T12:05:05;26.77;;;18.00;;
2854;SDS011;1435;49.472;10.940;2023-03-03T12:10:17;29.83;;;18.30;;
2854;SDS011;1435;49.472;10.940;2023-03-03T12:15:29;20.90;;;15.47;;
2854;SDS011;1435;49.472;10.940;2023-03-03T12:20:39;25.40;;;16.53;;
2854;SDS011;1435;49.472;10.940;2023-03-03T12:25:47;27.07;;;17.83;;
2854;SDS011;1435;49.472;10.940;2023-03-03T12:31:08;29.00;;;16.17;;
2854;SDS011;1435;49.472;10.940;2023-03-03T12:36:20;28.13;;;16.37;;
2854;SDS011;1435;49.472;10.940;2023-03-03T12:41:31;21.13;;;16.80;;
2854;SDS011;1435;49.472;10.940;2023-03-03T12:46:43;21.30;;;15.27;;
2854;SDS011;1435;49.472;10.940;2023-03-03T12:51:48;21.00;;;16.30;;
2854;SDS011;1435;49.472;10.940;2023-03-03T12:57:04;20.77;;;14.67;;
2854;SDS011;1435;49.472;10.940;2023-03-03T13:02:24;21.67;;;16.20;;
2854;SDS011;1435;49.472;10.940;2023-03-03T13:07:40;21.30;;;15.20;;
2854;SDS011;1435;49.472;10.940;2023-03-03T13:12:46;26.13;;;14.07;;
2854;SDS011;1435;49.472;10.940;2023-03-03T13:17:58;22.00;;;15.73;;
2854;SDS011;1435;49.472;10.940;2023-03-03T13:23:11;23.40;;;16.20;;
2854;SDS011;1435;49.472;10.940;2023-03-03T13:28:21;22.40;;;15.77;;
2854;SDS011;1435;49.472;10.940;2023-03-03T13:33:30;20.30;;;15.57;;
2854;SDS011;1435;49.472;10.940;2023-03-03T13:38:36;22.50;;;15.17;;
2854;SDS011;1435;49.472;10.940;2023-03-03T13:43:42;20.17;;;16.10;;
2854;SDS011;1435;49.472;10.940;2023-03-03T13:49:01;22.37;;;14.97;;
2854;SDS011;1435;49.472;10.940;2023-03-03T13:54:28;20.57;;;14.00;;
2854;SDS011;1435;49.472;10.940;2023-03-03T13:59:44;16.50;;;12.90;;
2854;SDS011;1435;49.472;10.940;2023-03-03T14:04:55;18.13;;;14.40;;
2854;SDS011;1435;49.472;10.940;2023-03-03T14:10:02;19.40;;;13.23;;
2854;SDS011;1435;49.472;10.940;2023-03-03T14:15:14;17.00;;;12.80;;
2854;SDS011;1435;49.472;10.940;2023-03-03T14:20:25;19.63;;;13.50;;
2854;SDS011;1435;49.472;10.940;2023-03-03T14:25:50;18.60;;;13.37;;
2854;SDS011;1435;49.472;10.940;2023-03-03T14:30:57;19.93;;;14.00;;
2854;SDS011;1435;49.472;10.940;2023-03-03T14:36:12;19.15;;;15.35;;
2854;SDS011;1435;49.472;10.940;2023-03-03T14:41:16;15.87;;;13.13;;
2854;SDS011;1435;49.472;10.940;2023-03-03T14:46:30;13.90;;;11.63;;
2854;SDS011;1435;49.472;10.940;2023-03-03T14:51:41;17.07;;;11.70;;
2854;SDS011;1435;49.472;10.940;2023-03-03T15:02:19;15.47;;;11.20;;
2854;SDS011;1435;49.472;10.940;2023-03-03T15:07:32;16.83;;;12.07;;
2854;SDS011;1435;49.472;10.940;2023-03-03T15:12:37;15.23;;;11.43;;
2854;SDS011;1435;49.472;10.940;2023-03-03T15:17:41;15.00;;;11.00;;
2854;SDS011;1435;49.472;10.940;2023-03-03T15:22:47;15.20;;;10.30;;
2854;SDS011;1435;49.472;10.940;2023-03-03T15:27:51;15.90;;;10.50;;
2854;SDS011;1435;49.472;10.940;2023-03-03T15:33:07;16.60;;;10.87;;
2854;SDS011;1435;49.472;10.940;2023-03-03T15:38:24;14.53;;;10.10;;
2854;SDS011;1435;49.472;10.940;2023-03-03T15:43:35;12.20;;;9.90;;
2854;SDS011;1435;49.472;10.940;2023-03-03T15:48:42;15.60;;;10.23;;
2854;SDS011;1435;49.472;10.940;2023-03-03T15:59:24;14.83;;;10.20;;
2854;SDS011;1435;49.472;10.940;2023-03-03T16:04:43;14.03;;;9.20;;
2854;SDS011;1435;49.472;10.940;2023-03-03T16:09:55;14.23;;;10.07;;
2854;SDS011;1435;49.472;10.940;2023-03-03T16:15:19;14.13;;;9.30;;
2854;SDS011;1435;49.472;10.940;2023-03-03T16:20:32;12.90;;;9.23;;
2854;SDS011;1435;49.472;10.940;2023-03-03T16:25:47;13.77;;;9.63;;
2854;SDS011;1435;49.472;10.940;2023-03-03T16:31:01;12.53;;;8.37;;
2854;SDS011;1435;49.472;10.940;2023-03-03T16:36:12;13.20;;;10.32;;
2854;SDS011;1435;49.472;10.940;2023-03-03T16:41:28;11.20;;;7.80;;
2854;SDS011;1435;49.472;10.940;2023-03-03T16:46:42;9.63;;;8.63;;
2854;SDS011;1435;49.472;10.940;2023-03-03T16:51:48;9.90;;;7.33;;
2854;SDS011;1435;49.472;10.940;2023-03-03T16:57:00;8.20;;;6.23;;
2854;SDS011;1435;49.472;10.940;2023-03-03T17:02:13;9.30;;;5.70;;
2854;SDS011;1435;49.472;10.940;2023-03-03T17:07:38;9.60;;;4.90;;
2854;SDS011;1435;49.472;10.940;2023-03-03T17:12:53;6.23;;;4.17;;
2854;SDS011;1435;49.472;10.940;2023-03-03T17:18:09;9.00;;;4.80;;
2854;SDS011;1435;49.472;10.940;2023-03-03T17:29:08;8.20;;;5.47;;
2854;SDS011;1435;49.472;10.940;2023-03-03T17:34:25;7.80;;;5.30;;
2854;SDS011;1435;49.472;10.940;2023-03-03T17:39:41;6.30;;;3.80;;
2854;SDS011;1435;49.472;10.940;2023-03-03T17:44:59;6.10;;;4.00;;
2854;SDS011;1435;49.472;10.940;2023-03-03T17:50:13;5.65;;;3.80;;
2854;SDS011;1435;49.472;10.940;2023-03-03T17:55:28;5.33;;;3.37;;
2854;SDS011;1435;49.472;10.940;2023-03-03T18:00:50;7.00;;;4.53;;
2854;SDS011;1435;49.472;10.940;2023-03-03T18:06:05;4.03;;;2.80;;
2854;SDS011;1435;49.472;10.940;2023-03-03T18:11:39;6.40;;;3.13;;
2854;SDS011;1435;49.472;10.940;2023-03-03T18:17:12;3.73;;;2.77;;
2854;SDS011;1435;49.472;10.940;2023-03-03T18:22:28;4.57;;;3.53;;
2854;SDS011;1435;49.472;10.940;2023-03-03T18:27:33;4.00;;;3.60;;
2854;SDS011;1435;49.472;10.940;2023-03-03T18:32:40;4.40;;;3.30;;
2854;SDS011;1435;49.472;10.940;2023-03-03T18:37:45;4.47;;;3.47;;
2854;SDS011;1435;49.472;10.940;2023-03-03T18:42:47;3.33;;;2.90;;
2854;SDS011;1435;49.472;10.940;2023-03-03T18:48:03;5.03;;;3.70;;
2854;SDS011;1435;49.472;10.940;2023-03-03T18:53:16;9.00;;;4.10;;
2854;SDS011;1435;49.472;10.940;2023-03-03T18:58:37;4.17;;;3.10;;
2854;SDS011;1435;49.472;10.940;2023-03-03T19:04:02;4.93;;;3.63;;
2854;SDS011;1435;49.472;10.940;2023-03-03T19:09:16;4.50;;;3.63;;
2854;SDS011;1435;49.472;10.940;2023-03-03T19:14:29;7.30;;;4.50;;
2854;SDS011;1435;49.472;10.940;2023-03-03T19:19:35;9.13;;;3.77;;
2854;SDS011;1435;49.472;10.940;2023-03-03T19:25:02;4.20;;;3.80;;
2854;SDS011;1435;49.472;10.940;2023-03-03T19:30:20;8.00;;;4.30;;
2854;SDS011;1435;49.472;10.940;2023-03-03T19:35:41;5.90;;;4.23;;
2854;SDS011;1435;49.472;10.940;2023-03-03T19:40:56;4.60;;;4.20;;
2854;SDS011;1435;49.472;10.940;2023-03-03T19:46:19;6.03;;;4.60;;
2854;SDS011;1435;49.472;10.940;2023-03-03T19:51:36;6.20;;;4.50;;
2854;SDS011;1435;49.472;10.940;2023-03-03T19:56:44;5.23;;;4.30;;
2854;SDS011;1435;49.472;10.940;2023-03-03T20:01:51;6.47;;;5.33;;
2854;SDS011;1435;49.472;10.940;2023-03-03T20:07:06;7.30;;;5.80;;
2854;SDS011;1435;49.472;10.940;2023-03-03T20:12:25;6.47;;;5.10;;
2854;SDS011;1435;49.472;10.940;2023-03-03T20:17:49;8.60;;;5.87;;
2854;SDS011;1435;49.472;10.940;2023-03-03T20:23:01;9.87;;;6.83;;
2854;SDS011;1435;49.472;10.940;2023-03-03T20:28:14;12.50;;;8.00;;
2854;SDS011;1435;49.472;10.940;2023-03-03T20:33:43;13.30;;;9.30;;
2854;SDS011;1435;49.472;10.940;2023-03-03T20:38:58;13.50;;;8.77;;
2854;SDS011;1435;49.472;10.940;2023-03-03T20:44:07;10.20;;;7.07;;
2854;SDS011;1435;49.472;10.940;2023-03-03T20:49:21;13.10;;;8.20;;
2854;SDS011;1435;49.472;10.940;2023-03-03T20:54:39;11.83;;;7.17;;
2854;SDS011;1435;49.472;10.940;2023-03-03T20:59:47;9.47;;;7.77;;
2854;SDS011;1435;49.472;10.940;2023-03-03T21:05:05;13.87;;;8.30;;
2854;SDS011;1435;49.472;10.940;2023-03-03T21:10:14;13.70;;;8.30;;
2854;SDS011;1435;49.472;10.940;2023-03-03T21:15:24;10.10;;;7.47;;
2854;SDS011;1435;49.472;10.940;2023-03-03T21:20:29;11.37;;;7.60;;
2854;SDS011;1435;49.472;10.940;2023-03-03T21:25:42;13.40;;;8.47;;
2854;SDS011;1435;49.472;10.940;2023-03-03T21:30:57;11.50;;;8.33;;
2854;SDS011;1435;49.472;10.940;2023-03-03T21:36:06;11.20;;;9.50;;
2854;SDS011;1435;49.472;10.940;2023-03-03T21:41:09;14.30;;;9.07;;
2854;SDS011;1435;49.472;10.940;2023-03-03T21:46:11;13.97;;;9.60;;
2854;SDS011;1435;49.472;10.940;2023-03-03T21:51:13;10.93;;;8.70;;
2854;SDS011;1435;49.472;10.940;2023-03-03T21:56:16;14.90;;;9.00;;
2854;SDS011;1435;49.472;10.940;2023-03-03T22:01:18;18.87;;;10.07;;
2854;SDS011;1435;49.472;10.940;2023-03-03T22:06:21;10.97;;;8.00;;
2854;SDS011;1435;49.472;10.940;2023-03-03T22:11:24;13.57;;;8.80;;
2854;SDS011;1435;49.472;10.940;2023-03-03T22:16:25;12.37;;;8.30;;
2854;SDS011;1435;49.472;10.940;2023-03-03T22:21:27;10.47;;;7.50;;
2854;SDS011;1435;49.472;10.940;2023-03-03T22:26:30;14.20;;;7.97;;
2854;SDS011;1435;49.472;10.940;2023-03-03T22:31:32;13.27;;;7.87;;
2854;SDS011;1435;49.472;10.940;2023-03-03T22:36:34;9.63;;;7.80;;
2854;SDS011;1435;49.472;10.940;2023-03-03T22:41:37;12.30;;;7.63;;
2854;SDS011;1435;49.472;10.940;2023-03-03T22:46:39;12.97;;;9.30;;
2854;SDS011;1435;49.472;10.940;2023-03-03T22:51:40;13.57;;;9.00;;
2854;SDS011;1435;49.472;10.940;2023-03-03T22:56:43;13.17;;;8.47;;
2854;SDS011;1435;49.472;10.940;2023-03-03T23:01:45;11.17;;;7.87;;
2854;SDS011;1435;49.472;10.940;2023-03-03T23:06:47;13.77;;;8.20;;
2854;SDS011;1435;49.472;10.940;2023-03-03T23:11:50;11.37;;;8.60;;
2854;SDS011;1435;49.472;10.940;2023-03-03T23:16:52;13.33;;;7.40;;
2854;SDS011;1435;49.472;10.940;2023-03-03T23:21:54;9.13;;;8.20;;
2854;SDS011;1435;49.472;10.940;2023-03-03T23:26:57;10.37;;;8.43;;
2854;SDS011;1435;49.472;10.940;2023-03-03T23:31:59;8.87;;;7.67;;
2854;SDS011;1435;49.472;10.940;2023-03-03T23:37:01;11.63;;;7.80;;
2854;SDS011;1435;49.472;10.940;2023-03-03T23:42:04;9.30;;;7.87;;
2854;SDS011;1435;49.472;10.940;2023-03-03T23:47:06;12.60;;;8.63;;
2854;SDS011;1435;49.472;10.940;2023-03-03T23:52:09;13.17;;;9.20;;
2854;SDS011;1435;49.472;10.940;2023-03-03T23:57:12;14.07;;;8.50;;
